Meteo Giornale » Osservazioni meteo Algeria » Biskra
ore: 17:00 - Osservazioni Meteo Biskra
Lat. 34° 48' N Lon. 5° 44' E Alt. 87 metri s.l.m.
44 °C
Sereno
Temp. 24 Ore
31 °C
44 °C
Nord
5.5 Km/h
Dew point 7 °C
Umidità 11 %
Visibilità 7 Km
Il sole sorge alle ore 06:09
Il sole tramonta alle ore 19:05
| Data e Ora | Cielo e Fenomeni | T °C | DP °C | Um. % | Pres. hPa | Vis. km | Vento km/h | |
|---|---|---|---|---|---|---|---|---|
| Oggi h: 17:00 | Sereno | 44 | 7 | 11 | 1013 | 7 | N 5.5 | |
| Oggi h: 16:00 | Sereno | 44 | 7 | 11 | 1014 | 7 | O/SO 9.3 | |
| Oggi h: 15:00 | Sereno | 44 | 9 | 12 | 1014 | 7 | O/SO 11.1 | |
| Oggi h: 14:00 | Sereno | 44 | 9 | 12 | 1015 | 7 | SO 7.4 | |
| Oggi h: 13:00 | Sereno | 43 | 10 | 14 | 1016 | 7 | SE 7.4 | |
| Oggi h: 12:00 | Sereno | 42 | 11 | 16 | 1016 | 7 | SE 7.4 | |
| Oggi h: 11:00 | Sereno | 40 | 10 | 16 | 1017 | 7 | E/SE 9.3 | |
| Oggi h: 10:00 | Sereno | 39 | 11 | 18 | 1017 | 7 | E/SE 13 | |
| Oggi h: 09:00 | Sereno | 36 | 12 | 23 | 1017 | 7 | E/SE 9.3 | |
| Oggi h: 08:00 | Sereno | 35 | 9 | 20 | 1016 | 7 | N 3.7 | |
| Oggi h: 07:00 | Sereno | 32 | 7 | 21 | 1016 | 7 | N 5.5 | |
| Oggi h: 06:00 | Sereno | 31 | 7 | 22 | 1015 | 8 | N/NE 7.4 | |
| Oggi h: 05:00 | Sereno | 32 | 7 | 21 | 1015 | 8 | N 3.7 | |
| Oggi h: 04:00 | Sereno | 32 | 7 | 21 | 1015 | 8 | N 5.5 | |
| Oggi h: 03:00 | Sereno | 33 | 8 | 21 | 1015 | 8 | N 5.5 | |
| Oggi h: 02:00 | Sereno | 35 | 8 | 19 | 1015 | 8 | N 1.8 | |
| Oggi h: 00:00 | Sereno | 36 | 8 | 18 | 1015 | 8 | E/NE 7.4 | |
| Ieri h: 23:00 | Sereno | 36 | 8 | 18 | 1015 | 8 | E 7.4 | |
| Ieri h: 22:00 | Sereno | 35 | 7 | 17 | 1015 | 8 | E/NE 7.4 | |
| Ieri h: 21:00 | Sereno | 37 | 8 | 17 | 1014 | 8 | N 5.5 | |
| Ieri h: 20:00 | Sereno | 39 | 7 | 14 | 1013 | 8 | E/SE 7.4 | |
| Ieri h: 19:00 | Sereno | 41 | 7 | 12 | 1013 | 8 | N 5.5 | |
| Ieri h: 18:00 | Sereno | 43 | 7 | 11 | 1013 | 8 | S 7.4 | |



